Time;durP1;ratioP1;P1;durP2;ratioP2;P2;SDS_P1;SDS_P2;PMS_P1;PMS_P2;Temp;Humidity;BMP_temperature;BMP_pressure;BME280_temperature;BME280_humidity;BME280_pressure;Samples;Min_cycle;Max_cycle;Signal;HPM_P1;HPM_P2
2021/11/23 00:01:53;;;;;;;7.47;4.90;;;;;;;-145.69;100.00;73189.69;5093426;28;20209;-77
2021/11/23 00:04:20;;;;;;;7.90;5.07;;;;;;;-145.69;100.00;73185.72;5093501;28;20220;-78
2021/11/23 00:06:46;;;;;;;6.67;4.73;;;;;;;-145.69;100.00;73195.66;5093371;28;20202;-78
2021/11/23 00:09:13;;;;;;;7.70;4.87;;;;;;;-145.69;100.00;73201.63;5092248;28;20198;-77
2021/11/23 00:11:39;;;;;;;7.93;5.07;;;;;;;-145.69;100.00;73201.63;5093261;28;20255;-77
2021/11/23 00:14:06;;;;;;;8.13;4.43;;;;;;;-145.69;100.00;73201.63;5093504;28;20209;-78
2021/11/23 00:16:32;;;;;;;7.33;4.43;;;;;;;-145.69;100.00;73207.59;5093322;28;20210;-78
2021/11/23 00:19:00;;;;;;;8.37;5.37;;;;;;;-145.69;100.00;73205.63;5093107;28;20233;-78
2021/11/23 00:21:26;;;;;;;7.57;5.07;;;;;;;-145.69;100.00;73213.56;5093202;28;20202;-77
2021/11/23 00:23:53;;;;;;;7.60;5.20;;;;;;;-145.69;100.00;73221.53;5093296;28;20202;-77
2021/11/23 00:26:19;;;;;;;7.57;5.00;;;;;;;-145.69;100.00;73217.56;5092945;28;20232;-78
2021/11/23 00:28:46;;;;;;;7.13;4.70;;;;;;;-145.69;100.00;73227.50;5093187;28;20606;-77
2021/11/23 00:31:13;;;;;;;7.60;4.40;;;;;;;-145.69;100.00;73237.47;5093394;28;20209;-78
2021/11/23 00:33:42;;;;;;;6.70;4.23;;;;;;;-145.69;100.00;73249.41;5093109;28;20202;-78
2021/11/23 00:36:10;;;;;;;6.80;4.63;;;;;;;-145.69;100.00;73245.44;5093248;28;20206;-77
2021/11/23 00:38:41;;;;;;;6.60;4.17;;;;;;;-145.69;100.00;73253.41;5093084;28;20202;-78
2021/11/23 00:41:08;;;;;;;6.80;4.30;;;;;;;-145.69;100.00;73247.41;5092860;28;20237;-77
2021/11/23 00:43:34;;;;;;;6.17;4.47;;;;;;;-145.69;100.00;73251.41;5093150;28;20205;-78
2021/11/23 00:46:01;;;;;;;6.07;4.37;;;;;;;-145.69;100.00;73247.41;5092905;28;20194;-78
2021/11/23 00:48:27;;;;;;;8.00;4.73;;;;;;;-145.69;100.00;73261.34;5093038;28;20267;-77
2021/11/23 00:50:54;;;;;;;7.47;4.53;;;;;;;-145.69;100.00;73261.34;5092939;28;20205;-77
2021/11/23 00:53:22;;;;;;;7.30;4.83;;;;;;;-145.69;100.00;73261.34;5092863;28;20263;-78
2021/11/23 00:55:48;;;;;;;8.23;4.73;;;;;;;-145.69;100.00;73261.34;5092736;28;20205;-78
2021/11/23 00:58:15;;;;;;;7.20;4.37;;;;;;;-145.69;100.00;73281.25;5092961;28;20232;-77
2021/11/23 01:00:41;;;;;;;5.97;4.30;;;;;;;-145.69;100.00;73281.25;5092603;28;20250;-78
2021/11/23 01:03:08;;;;;;;6.10;4.07;;;;;;;-145.69;100.00;73289.22;5092696;28;20210;-78
2021/11/23 01:05:34;;;;;;;6.83;4.33;;;;;;;-145.69;100.00;73291.22;5092828;28;20260;-78
2021/11/23 01:08:01;;;;;;;5.93;4.33;;;;;;;-145.69;100.00;73293.22;5092695;28;20247;-78
2021/11/23 01:10:29;;;;;;;8.97;4.60;;;;;;;-145.69;100.00;73293.22;5092942;28;20214;-78
2021/11/23 01:12:56;;;;;;;8.10;4.90;;;;;;;-145.69;100.00;73285.25;5092601;28;20232;-78
2021/11/23 01:15:23;;;;;;;9.70;4.90;;;;;;;-145.69;100.00;73297.19;5095113;28;20691;-78
2021/11/23 01:17:50;;;;;;;7.73;4.87;;;;;;;-145.69;100.00;73297.19;5092589;28;20210;-78
2021/11/23 01:20:16;;;;;;;7.50;4.53;;;;;;;-145.69;100.00;73309.13;5092715;28;20688;-78
2021/11/23 01:22:45;;;;;;;7.97;4.90;;;;;;;-145.69;100.00;73313.13;5096228;28;20295;-78
2021/11/23 01:25:12;;;;;;;8.00;4.73;;;;;;;-145.69;100.00;73317.09;5102582;28;20695;-78
2021/11/23 01:27:40;;;;;;;8.80;5.13;;;;;;;-145.69;100.00;73319.09;5116524;28;20303;-78
2021/11/23 01:30:09;;;;;;;8.43;4.67;;;;;;;-145.69;100.00;73325.06;5116412;28;20201;-78
2021/11/23 01:32:36;;;;;;;8.00;4.90;;;;;;;-145.69;100.00;73327.06;5116353;28;20250;-77
2021/11/23 01:35:03;;;;;;;8.83;5.03;;;;;;;-145.69;100.00;73333.03;5115363;28;20656;-78
2021/11/23 01:37:30;;;;;;;9.47;4.77;;;;;;;-145.69;100.00;73335.03;5115983;28;20213;-78
2021/11/23 01:39:56;;;;;;;8.10;5.10;;;;;;;-145.69;100.00;73344.97;5116118;28;20229;-78
2021/11/23 01:42:23;;;;;;;7.90;4.97;;;;;;;-145.69;100.00;73342.97;5115987;28;20672;-78
2021/11/23 01:44:51;;;;;;;9.10;4.70;;;;;;;-145.69;100.00;73348.97;5116042;28;20586;-77
2021/11/23 01:47:17;;;;;;;8.97;5.03;;;;;;;-145.69;100.00;73348.97;5116065;28;20284;-78
2021/11/23 01:49:44;;;;;;;8.77;5.10;;;;;;;-145.69;100.00;73360.91;5115948;28;20273;-78
2021/11/23 01:52:10;;;;;;;7.20;4.60;;;;;;;-145.69;100.00;73370.84;5116344;28;20250;-78
2021/11/23 01:54:37;;;;;;;8.67;5.40;;;;;;;-145.69;100.00;73376.81;5116339;28;20197;-77
2021/11/23 01:57:04;;;;;;;9.77;5.53;;;;;;;-145.69;100.00;73388.78;5115798;28;20687;-78
2021/11/23 01:59:32;;;;;;;10.33;5.47;;;;;;;-145.69;100.00;73392.75;5115873;28;20221;-78
2021/11/23 02:02:00;;;;;;;9.60;6.00;;;;;;;-145.69;100.00;73392.75;5115755;28;20197;-77
2021/11/23 02:04:26;;;;;;;9.43;5.37;;;;;;;-145.69;100.00;73398.72;5115688;28;20202;-78
2021/11/23 02:06:53;;;;;;;9.60;5.43;;;;;;;-145.69;100.00;73400.72;5116182;28;20196;-77
2021/11/23 02:09:19;;;;;;;8.10;5.57;;;;;;;-145.69;100.00;73410.66;5115758;28;20197;-77
2021/11/23 02:11:46;;;;;;;11.37;6.07;;;;;;;-145.69;100.00;73428.59;5115783;28;20212;-78
2021/11/23 02:14:14;;;;;;;11.50;6.10;;;;;;;-145.69;100.00;73434.56;5115573;28;20201;-78
2021/11/23 02:16:40;;;;;;;9.80;6.47;;;;;;;-145.69;100.00;73412.66;5115577;28;20193;-78
2021/11/23 02:19:08;;;;;;;12.70;6.70;;;;;;;-145.69;100.00;73414.66;5115385;28;20201;-77
2021/11/23 02:21:36;;;;;;;11.40;6.63;;;;;;;-145.69;100.00;73400.72;5115509;28;20221;-77
2021/11/23 02:24:03;;;;;;;12.27;6.20;;;;;;;-145.69;100.00;73408.69;5115318;28;20583;-77
2021/11/23 02:26:30;;;;;;;10.10;6.03;;;;;;;-145.69;100.00;73428.59;5115470;28;20618;-77
2021/11/23 02:28:57;;;;;;;12.07;6.13;;;;;;;-145.69;100.00;73424.59;5115421;28;20198;-77
2021/11/23 02:31:24;;;;;;;13.73;6.33;;;;;;;-145.69;100.00;73420.63;5115089;28;20206;-78
2021/11/23 02:33:51;;;;;;;9.50;6.37;;;;;;;-145.69;100.00;73416.66;5114529;28;20202;-77
2021/11/23 02:36:17;;;;;;;11.90;6.93;;;;;;;-145.69;100.00;73430.56;5115028;28;20201;-78
2021/11/23 02:38:46;;;;;;;11.30;6.57;;;;;;;-145.69;100.00;73430.56;5115021;28;20651;-77
2021/11/23 02:41:13;;;;;;;11.87;6.93;;;;;;;-145.69;100.00;73432.56;5115033;28;20687;-77
2021/11/23 02:43:41;;;;;;;10.63;6.03;;;;;;;-145.69;100.00;73434.56;5114961;28;20193;-77
2021/11/23 02:46:08;;;;;;;12.40;7.10;;;;;;;-145.69;100.00;73442.53;5114866;28;20200;-77
2021/11/23 02:48:35;;;;;;;12.17;7.47;;;;;;;-145.69;100.00;73424.59;5115096;28;20254;-77
2021/11/23 02:51:05;;;;;;;11.30;6.57;;;;;;;-145.69;100.00;73428.59;5115043;28;20541;-77
2021/11/23 02:53:31;;;;;;;12.33;7.07;;;;;;;-145.69;100.00;73432.56;5114901;28;20261;-77
2021/11/23 02:56:00;;;;;;;11.80;6.70;;;;;;;-145.69;100.00;73436.56;5114849;28;20201;-77
2021/11/23 02:58:29;;;;;;;13.13;7.13;;;;;;;-145.69;100.00;73426.59;5114773;28;20202;-79
2021/11/23 03:00:56;;;;;;;15.77;7.37;;;;;;;-145.69;100.00;73420.63;5114383;28;20228;-77
2021/11/23 03:03:23;;;;;;;9.77;5.43;;;;;;;-145.69;100.00;73406.69;5114805;28;20197;-77
2021/11/23 03:05:49;;;;;;;12.50;6.63;;;;;;;-145.69;100.00;73410.66;5114914;28;20213;-77
2021/11/23 03:08:16;;;;;;;12.73;7.27;;;;;;;-145.69;100.00;73402.72;5114487;28;20197;-77
2021/11/23 03:10:43;;;;;;;12.50;6.87;;;;;;;-145.69;100.00;73394.75;5114565;28;20197;-77
2021/11/23 03:13:11;;;;;;;11.90;7.20;;;;;;;-145.69;100.00;73384.78;5114252;28;20224;-77
2021/11/23 03:15:37;;;;;;;12.40;6.97;;;;;;;-145.69;100.00;73392.75;5114576;28;20277;-77
2021/11/23 03:18:04;;;;;;;11.53;6.67;;;;;;;-145.69;100.00;73376.81;5114560;28;20662;-77
2021/11/23 03:20:30;;;;;;;15.57;7.97;;;;;;;-145.69;100.00;73370.84;5114507;28;20312;-77
2021/11/23 03:22:58;;;;;;;12.43;7.13;;;;;;;-145.69;100.00;73368.88;5113176;28;20250;-77
2021/11/23 03:25:25;;;;;;;12.63;7.33;;;;;;;-145.69;100.00;73364.88;5111489;28;20237;-77
2021/11/23 03:27:52;;;;;;;13.57;7.10;;;;;;;-145.69;100.00;73370.84;5113982;28;20200;-77
2021/11/23 03:30:24;;;;;;;13.30;7.60;;;;;;;-145.69;100.00;73380.81;5113982;28;20651;-76
2021/11/23 03:32:53;;;;;;;11.30;6.87;;;;;;;-145.69;100.00;73382.81;5114171;28;20194;-77
2021/11/23 03:35:21;;;;;;;16.40;7.47;;;;;;;-145.69;100.00;73398.72;5114051;28;20211;-77
2021/11/23 03:37:49;;;;;;;16.30;8.63;;;;;;;-145.69;100.00;73400.72;5114008;28;20202;-77
2021/11/23 03:40:16;;;;;;;14.77;8.23;;;;;;;-145.69;100.00;73406.69;5113636;28;20227;-77
2021/11/23 03:42:42;;;;;;;14.87;8.67;;;;;;;-145.69;100.00;73412.66;5114081;28;20197;-77
2021/11/23 03:45:10;;;;;;;15.50;8.17;;;;;;;-145.69;100.00;73404.69;5113873;28;20606;-77
2021/11/23 03:47:38;;;;;;;15.53;8.83;;;;;;;-145.69;100.00;73416.66;5113882;28;20202;-77
2021/11/23 03:50:06;;;;;;;14.33;8.33;;;;;;;-145.69;100.00;73412.66;5113737;28;20209;-77
2021/11/23 03:52:33;;;;;;;17.97;9.30;;;;;;;-145.69;100.00;73422.63;5113666;28;20537;-77
2021/11/23 03:55:00;;;;;;;16.50;9.00;;;;;;;-145.69;100.00;73440.53;5113563;28;20646;-77
2021/11/23 03:57:26;;;;;;;19.53;10.00;;;;;;;-145.69;100.00;73460.44;5113809;28;20227;-77
2021/11/23 03:59:53;;;;;;;19.30;9.80;;;;;;;-145.69;100.00;73462.44;5113720;28;20193;-77
2021/11/23 04:02:22;;;;;;;20.43;9.33;;;;;;;-145.69;100.00;73460.44;5113535;28;20279;-77
2021/11/23 04:04:52;;;;;;;20.70;10.40;;;;;;;-145.69;100.00;73466.41;5113395;28;20647;-77
2021/11/23 04:07:18;;;;;;;20.27;9.57;;;;;;;-145.69;100.00;73456.47;5113579;28;20202;-76
2021/11/23 04:09:45;;;;;;;19.80;10.87;;;;;;;-145.69;100.00;73456.47;5113618;28;20204;-77
2021/11/23 04:12:13;;;;;;;20.07;10.13;;;;;;;-145.69;100.00;73466.41;5113547;28;20201;-77
2021/11/23 04:14:40;;;;;;;22.70;11.33;;;;;;;-145.69;100.00;73486.31;5113537;28;20369;-77
2021/11/23 04:17:07;;;;;;;20.80;10.17;;;;;;;-145.69;100.00;73486.31;5113449;28;20200;-76
2021/11/23 04:19:35;;;;;;;21.23;10.93;;;;;;;-145.69;100.00;73506.22;5113428;28;20197;-77
2021/11/23 04:22:04;;;;;;;21.90;10.90;;;;;;;-145.69;100.00;73512.22;5113183;28;20229;-77
2021/11/23 04:24:30;;;;;;;17.37;10.63;;;;;;;-145.69;100.00;73528.13;5113100;28;20233;-77
2021/11/23 04:26:57;;;;;;;21.50;10.90;;;;;;;-145.69;100.00;73530.13;5113449;28;20208;-76
2021/11/23 04:29:24;;;;;;;25.53;11.43;;;;;;;-145.69;100.00;73532.13;5113392;28;20242;-77
2021/11/23 04:31:51;;;;;;;26.23;12.80;;;;;;;-145.69;100.00;73544.06;5113308;28;20197;-77
2021/11/23 04:34:17;;;;;;;24.77;12.50;;;;;;;-145.69;100.00;73556.00;5113292;28;20201;-77
2021/11/23 04:36:46;;;;;;;25.53;12.50;;;;;;;-145.69;100.00;73567.94;5113089;28;20201;-77
2021/11/23 04:39:18;;;;;;;25.67;11.97;;;;;;;-145.69;100.00;73573.94;5113311;28;20254;-76
2021/11/23 04:41:45;;;;;;;27.90;12.67;;;;;;;-145.69;100.00;73591.84;5113055;28;20229;-77
2021/11/23 04:44:14;;;;;;;27.87;13.93;;;;;;;-145.69;100.00;73593.84;5113270;28;20201;-76
2021/11/23 04:46:41;;;;;;;36.90;13.33;;;;;;;-145.69;100.00;73595.81;5112933;28;20674;-77
2021/11/23 04:49:08;;;;;;;54.47;14.17;;;;;;;-145.69;100.00;73599.81;5112909;28;20206;-77
2021/11/23 04:51:36;;;;;;;43.10;14.57;;;;;;;-145.69;100.00;73599.81;5113002;28;20679;-77
2021/11/23 04:54:02;;;;;;;72.50;15.67;;;;;;;-145.69;100.00;73609.75;5112987;28;20667;-77
2021/11/23 04:56:40;;;;;;;118.93;16.63;;;;;;;-145.69;100.00;73617.72;5115079;28;20728;-76
2021/11/23 04:59:07;;;;;;;199.23;19.87;;;;;;;-145.69;100.00;73625.69;5117010;28;20197;-77
2021/11/23 05:01:33;;;;;;;60.07;15.67;;;;;;;-145.69;100.00;73617.72;5116756;28;20221;-76
2021/11/23 05:04:02;;;;;;;52.17;15.13;;;;;;;-145.69;100.00;73619.72;5117024;28;20200;-77
2021/11/23 05:06:30;;;;;;;102.50;15.20;;;;;;;-145.69;100.00;73613.75;5116800;28;20201;-77
2021/11/23 05:08:57;;;;;;;227.70;24.67;;;;;;;-145.69;100.00;73621.72;5116662;28;20666;-76
2021/11/23 05:11:28;;;;;;;91.77;15.33;;;;;;;-145.69;100.00;73619.72;5116658;28;20197;-76
2021/11/23 05:13:58;;;;;;;52.27;14.20;;;;;;;-145.69;100.00;73623.69;5116683;28;20201;-77
2021/11/23 05:16:25;;;;;;;95.67;15.90;;;;;;;-145.69;100.00;73607.78;5116845;28;20247;-76
2021/11/23 05:18:51;;;;;;;73.33;14.67;;;;;;;-145.69;100.00;73613.75;5116749;28;20205;-76
2021/11/23 05:21:18;;;;;;;116.70;16.90;;;;;;;-145.69;100.00;73611.75;5116529;28;20221;-76
2021/11/23 05:23:44;;;;;;;126.20;18.87;;;;;;;-145.69;100.00;73627.69;5109973;28;20572;-76
2021/11/23 05:26:11;;;;;;;57.13;14.53;;;;;;;-145.69;100.00;73627.69;5095506;28;20279;-76
2021/11/23 05:28:37;;;;;;;100.70;17.53;;;;;;;-145.69;100.00;73623.69;5095779;28;20255;-76
2021/11/23 05:31:08;;;;;;;32.23;13.83;;;;;;;-145.69;100.00;73627.69;5096202;28;20206;-77
2021/11/23 05:33:36;;;;;;;49.20;16.40;;;;;;;-145.69;100.00;73629.66;5095841;28;20202;-76
2021/11/23 05:36:05;;;;;;;38.47;15.60;;;;;;;-145.69;100.00;73629.66;5095919;28;20225;-76
2021/11/23 05:38:32;;;;;;;40.63;15.90;;;;;;;-145.69;100.00;73635.66;5095955;28;20267;-76
2021/11/23 05:40:58;;;;;;;33.60;14.43;;;;;;;-145.69;100.00;73643.59;5095610;28;20230;-76
2021/11/23 05:43:25;;;;;;;42.63;14.83;;;;;;;-145.69;100.00;73651.56;5095863;28;20205;-76
2021/11/23 05:45:52;;;;;;;38.70;15.67;;;;;;;-145.69;100.00;73663.53;5095552;28;20193;-76
2021/11/23 05:48:21;;;;;;;41.37;16.90;;;;;;;-145.69;100.00;73667.50;5095371;28;20293;-76
2021/11/23 05:50:48;;;;;;;39.53;15.13;;;;;;;-145.69;100.00;73657.53;5095587;28;20206;-76
2021/11/23 05:53:17;;;;;;;41.13;15.93;;;;;;;-145.69;100.00;73653.56;5095323;28;20288;-76
2021/11/23 05:55:44;;;;;;;40.70;15.80;;;;;;;-145.69;100.00;73647.59;5095309;28;20617;-76
2021/11/23 05:58:13;;;;;;;34.00;13.00;;;;;;;-145.69;100.00;73639.63;5095830;28;20205;-77
2021/11/23 06:00:40;;;;;;;38.00;14.80;;;;;;;-145.69;100.00;73643.59;5095224;28;20667;-76
2021/11/23 06:03:06;;;;;;;39.30;15.10;;;;;;;-145.69;100.00;73643.59;5095501;28;20305;-77
2021/11/23 06:05:40;;;;;;;41.70;15.70;;;;;;;-145.69;100.00;73647.59;5095310;28;20198;-76
2021/11/23 06:08:06;;;;;;;51.37;19.23;;;;;;;-145.69;100.00;73637.63;5095121;28;20217;-77
2021/11/23 06:10:37;;;;;;;66.93;22.80;;;;;;;-145.69;100.00;73633.66;5095395;28;20202;-76
2021/11/23 06:13:07;;;;;;;65.03;21.93;;;;;;;-145.69;100.00;73631.66;5095294;28;20197;-76
2021/11/23 06:15:34;;;;;;;132.20;21.80;;;;;;;-145.69;100.00;73635.66;5095203;28;20611;-76
2021/11/23 06:18:13;;;;;;;92.83;19.97;;;;;;;-145.69;100.00;73637.63;5095023;28;20198;-76
2021/11/23 06:20:46;;;;;;;76.93;20.63;;;;;;;-145.69;100.00;73629.66;5094795;28;20222;-76
2021/11/23 06:23:14;;;;;;;69.27;19.97;;;;;;;-145.69;100.00;73629.66;5095181;28;20202;-77
2021/11/23 06:25:43;;;;;;;77.17;20.97;;;;;;;-145.69;100.00;73617.72;5094890;28;20337;-76
2021/11/23 06:28:14;;;;;;;68.57;19.87;;;;;;;-145.69;100.00;73625.69;5094956;28;20298;-76
2021/11/23 06:30:42;;;;;;;77.30;20.73;;;;;;;-145.69;100.00;73633.66;5094723;28;20670;-77
2021/11/23 06:33:09;;;;;;;210.37;22.87;;;;;;;-145.69;100.00;73619.72;5094655;28;20202;-77
2021/11/23 06:35:36;;;;;;;126.40;21.17;;;;;;;-145.69;100.00;73633.66;5094966;28;20209;-76
2021/11/23 06:38:16;;;;;;;84.63;20.77;;;;;;;-145.69;100.00;73647.59;5094431;28;20656;-77
2021/11/23 06:40:46;;;;;;;174.00;22.60;;;;;;;-145.69;100.00;73641.63;5094499;28;20673;-77
2021/11/23 06:43:23;;;;;;;119.67;21.50;;;;;;;-145.69;100.00;73635.66;5094488;28;20672;-77
2021/11/23 06:45:50;;;;;;;141.27;23.00;;;;;;;-145.69;100.00;73633.66;5094514;28;20202;-77
2021/11/23 06:48:17;;;;;;;91.87;19.50;;;;;;;-145.69;100.00;73635.66;5094442;28;20661;-77
2021/11/23 06:50:53;;;;;;;;;;;;;;;;;;;;;
2021/11/23 06:53:22;;;;;;;255.30;26.97;;;;;;;-145.69;100.00;73641.63;5094033;28;20202;-76
2021/11/23 06:55:50;;;;;;;177.20;25.63;;;;;;;-145.69;100.00;73639.63;5094394;28;20202;-77
2021/11/23 06:58:19;;;;;;;275.67;23.10;;;;;;;-145.69;100.00;73647.59;5094258;28;20202;-77
2021/11/23 07:00:48;;;;;;;210.60;22.23;;;;;;;-145.69;100.00;73649.59;5094272;28;20557;-77
2021/11/23 07:03:17;;;;;;;121.13;21.47;;;;;;;-145.69;100.00;73663.53;5094357;28;20205;-76
2021/11/23 07:05:45;;;;;;;144.87;21.53;;;;;;;-145.69;100.00;73647.59;5094330;28;20293;-77
2021/11/23 07:08:12;;;;;;;200.35;26.70;;;;;;;-145.69;100.00;73659.53;5093927;28;20483;-76
2021/11/23 07:10:41;;;;;;;205.43;26.80;;;;;;;-145.69;100.00;73681.44;5093999;28;20205;-77
2021/11/23 07:13:14;;;;;;;142.83;24.47;;;;;;;-145.69;100.00;73679.44;5094169;28;20202;-77
2021/11/23 07:15:40;;;;;;;69.57;20.57;;;;;;;-145.69;100.00;73667.50;5094055;28;20237;-76
2021/11/23 07:18:07;;;;;;;82.40;25.50;;;;;;;-145.69;100.00;73659.53;5093710;28;20214;-76
2021/11/23 07:20:33;;;;;;;108.55;36.33;;;;;;;-145.69;100.00;73651.56;5092619;28;20462;-77
2021/11/23 07:23:00;;;;;;;90.43;26.27;;;;;;;-145.69;100.00;73635.66;5096154;28;20230;-77
2021/11/23 07:25:28;;;;;;;155.20;25.03;;;;;;;-145.69;100.00;73645.59;5093362;28;20647;-77
2021/11/23 07:27:58;;;;;;;149.70;24.20;;;;;;;-145.69;100.00;73665.50;5093761;28;20198;-77
2021/11/23 07:30:30;;;;;;;73.47;20.13;;;;;;;-145.69;100.00;73665.50;5093541;28;20202;-76
2021/11/23 07:32:57;;;;;;;62.90;19.77;;;;;;;-145.69;100.00;73663.53;5093515;28;20207;-77
2021/11/23 07:35:23;;;;;;;66.60;21.27;;;;;;;-145.69;100.00;73655.56;5093550;28;20197;-77
2021/11/23 07:37:53;;;;;;;48.07;18.20;;;;;;;-145.69;100.00;73639.63;5093376;28;20672;-76
2021/11/23 07:40:19;;;;;;;47.70;16.90;;;;;;;-145.69;100.00;73647.59;5093649;28;20202;-77
2021/11/23 07:42:46;;;;;;;43.43;16.70;;;;;;;-145.69;100.00;73661.53;5093612;28;20226;-77
2021/11/23 07:45:24;;;;;;;42.17;16.33;;;;;;;-145.69;100.00;73671.47;5093383;28;20194;-76
2021/11/23 07:47:52;;;;;;;37.47;15.17;;;;;;;-145.69;100.00;73659.53;5093257;28;20202;-77
2021/11/23 07:50:18;;;;;;;36.70;15.10;;;;;;;-145.69;100.00;73651.56;5093243;28;20198;-77
2021/11/23 07:52:45;;;;;;;33.33;14.77;;;;;;;-145.69;100.00;73647.59;5093484;28;20208;-77
2021/11/23 07:55:17;;;;;;;32.17;14.10;;;;;;;-145.69;100.00;73629.66;5093310;28;20247;-76
2021/11/23 07:57:44;;;;;;;28.57;13.80;;;;;;;-145.69;100.00;73631.66;5093353;28;20198;-77
2021/11/23 08:00:12;;;;;;;30.17;13.47;;;;;;;-145.69;100.00;73633.66;5093207;28;20617;-77
2021/11/23 08:02:42;;;;;;;30.70;13.60;;;;;;;-145.69;100.00;73607.78;5093024;28;20589;-76
2021/11/23 08:05:11;;;;;;;30.47;13.43;;;;;;;-145.69;100.00;73599.81;5093099;28;20200;-76
2021/11/23 08:07:39;;;;;;;27.33;12.87;;;;;;;-145.69;100.00;73599.81;5093438;28;20255;-76
2021/11/23 08:10:06;;;;;;;28.20;12.50;;;;;;;-145.69;100.00;73583.88;5093235;28;20289;-76
2021/11/23 08:12:35;;;;;;;23.30;10.80;;;;;;;-145.69;100.00;73571.94;5093170;28;20564;-76
2021/11/23 08:15:03;;;;;;;21.80;10.93;;;;;;;-145.69;100.00;73579.91;5093031;28;20200;-76
2021/11/23 08:17:33;;;;;;;23.13;11.60;;;;;;;-145.69;100.00;73583.88;5093454;28;20198;-77
2021/11/23 08:20:05;;;;;;;20.30;10.07;;;;;;;-145.69;100.00;73587.88;5093137;28;20206;-77
2021/11/23 08:22:32;;;;;;;25.67;11.60;;;;;;;-145.69;100.00;73587.88;5092984;28;20221;-76
2021/11/23 08:25:01;;;;;;;25.83;11.77;;;;;;;-145.69;100.00;73575.91;5092784;28;20265;-76
2021/11/23 08:27:28;;;;;;;22.17;10.37;;;;;;;-145.69;100.00;73558.00;5092957;28;20202;-76
2021/11/23 08:29:59;;;;;;;21.53;10.97;;;;;;;-145.69;100.00;73571.94;5093070;28;20202;-76
2021/11/23 08:32:27;;;;;;;23.20;11.83;;;;;;;-145.69;100.00;73579.91;5097084;28;20209;-76
2021/11/23 08:34:56;;;;;;;19.97;9.40;;;;;;;-145.69;100.00;73540.06;5097174;28;20288;-77
2021/11/23 08:37:26;;;;;;;24.07;11.20;;;;;;;-145.69;100.00;73532.13;5097139;28;20263;-77
2021/11/23 08:39:53;;;;;;;30.80;14.93;;;;;;;-145.69;100.00;73532.13;5096843;28;20672;-76
2021/11/23 08:42:20;;;;;;;34.67;14.83;;;;;;;-145.69;100.00;73538.09;5096457;28;20291;-77
2021/11/23 08:44:47;;;;;;;33.87;15.13;;;;;;;-145.69;100.00;73550.03;5097031;28;20202;-77
2021/11/23 08:47:14;;;;;;;35.57;15.27;;;;;;;-145.69;100.00;73556.00;5096891;28;20285;-76
2021/11/23 08:49:43;;;;;;;17.07;9.10;;;;;;;-145.69;100.00;73546.06;5096866;28;20202;-76
2021/11/23 08:52:11;;;;;;;32.63;15.10;;;;;;;-145.69;100.00;73530.13;5096667;28;20202;-77
2021/11/23 08:54:39;;;;;;;26.10;13.33;;;;;;;-145.69;100.00;73508.22;5096667;28;20210;-77
2021/11/23 08:57:07;;;;;;;24.23;12.53;;;;;;;-145.69;100.00;73496.28;5096508;28;20255;-77
2021/11/23 08:59:39;;;;;;;27.77;11.90;;;;;;;-145.69;100.00;73488.31;5096758;28;20205;-77
2021/11/23 09:02:06;;;;;;;22.40;11.43;;;;;;;-145.69;100.00;73516.19;5096661;28;20222;-77
2021/11/23 09:04:34;;;;;;;21.07;11.00;;;;;;;-145.69;100.00;73502.25;5096542;28;20202;-77
2021/11/23 09:07:03;;;;;;;21.63;11.67;;;;;;;-145.69;100.00;73486.31;5096513;28;20200;-77
2021/11/23 09:09:31;;;;;;;22.33;11.53;;;;;;;-145.69;100.00;73492.28;5096415;28;20221;-77
2021/11/23 09:12:01;;;;;;;25.23;12.23;;;;;;;-145.69;100.00;73524.16;5096586;28;20208;-77
2021/11/23 09:14:28;;;;;;;24.07;12.07;;;;;;;-145.69;100.00;73512.22;5096758;28;20205;-77
2021/11/23 09:17:03;;;;;;;21.10;8.87;;;;;;;-145.69;100.00;73466.41;5096374;28;20550;-77
2021/11/23 09:19:30;;;;;;;18.20;9.83;;;;;;;-145.69;100.00;73410.66;5096323;28;20201;-77
2021/11/23 09:21:56;;;;;;;17.67;9.60;;;;;;;-145.69;100.00;73408.69;5096010;28;20312;-77
2021/11/23 09:24:24;;;;;;;15.67;7.20;;;;;;;-145.69;100.00;73366.88;5095993;28;20232;-78
2021/11/23 09:26:51;;;;;;;14.20;7.50;;;;;;;-145.69;100.00;73335.03;5094752;28;20584;-79
2021/11/23 09:29:20;;;;;;;19.03;7.30;;;;;;;-145.69;100.00;73323.06;5094949;28;20263;-78
2021/11/23 09:31:46;;;;;;;11.57;6.23;;;;;;;-145.69;100.00;73321.09;5095692;28;20284;-78
2021/11/23 09:34:14;;;;;;;12.73;6.20;;;;;;;-145.69;100.00;73311.13;5094964;28;20201;-78
2021/11/23 09:36:41;;;;;;;10.87;5.67;;;;;;;-145.69;100.00;73311.13;5094583;28;20202;-78
2021/11/23 09:39:08;;;;;;;13.30;5.93;;;;;;;-145.69;100.00;73305.16;5094734;28;20194;-78
2021/11/23 09:41:46;;;;;;;9.47;5.33;;;;;;;-145.69;100.00;73289.22;5094248;28;20202;-78
2021/11/23 09:44:13;;;;;;;11.07;5.73;;;;;;;-145.69;100.00;73285.25;5094703;28;20200;-78
2021/11/23 09:46:42;;;;;;;9.03;5.20;;;;;;;-145.69;100.00;73293.22;5094495;28;20202;-78
2021/11/23 09:49:11;;;;;;;8.93;4.90;;;;;;;-145.69;100.00;73313.13;5094450;28;20198;-78
2021/11/23 09:51:40;;;;;;;9.70;5.50;;;;;;;-145.69;100.00;73297.19;5094731;28;20198;-78
2021/11/23 09:54:13;;;;;;;9.00;4.93;;;;;;;-145.69;100.00;73287.25;5094609;28;20204;-78
2021/11/23 09:56:44;;;;;;;8.00;4.87;;;;;;;-145.69;100.00;73257.38;5094484;28;20205;-79
2021/11/23 09:59:11;;;;;;;9.33;5.00;;;;;;;-145.69;100.00;73229.50;5094552;28;20236;-78
2021/11/23 10:01:50;;;;;;;8.77;5.50;;;;;;;-145.69;100.00;73237.47;5094300;28;20217;-78
2021/11/23 10:04:17;;;;;;;8.47;5.17;;;;;;;-145.69;100.00;73253.41;5097172;28;20531;-79
2021/11/23 10:06:55;;;;;;;7.80;4.70;;;;;;;-145.69;100.00;73229.50;5114500;28;20671;-78
2021/11/23 10:09:27;;;;;;;7.63;4.43;;;;;;;-145.69;100.00;73239.47;5114495;28;20201;-79
2021/11/23 10:12:11;;;;;;;9.43;4.80;;;;;;;-145.69;100.00;73229.50;5114522;28;20250;-78
2021/11/23 10:14:41;;;;;;;6.93;4.40;;;;;;;-145.69;99.03;73219.56;5114705;28;20620;-79
2021/11/23 10:20:06;;;;;;;8.87;4.20;;;;;;;-145.69;99.16;73229.50;5152143;27;20538;-79
2021/11/23 10:22:37;;;;;;;8.77;4.90;;;;;;;-145.69;100.00;73237.47;5152152;27;20673;-78
2021/11/23 10:25:08;;;;;;;9.43;5.07;;;;;;;-145.69;100.00;73257.38;5152141;27;20197;-79
2021/11/23 10:27:42;;;;;;;7.37;4.43;;;;;;;-145.69;100.00;73267.34;5152184;27;20184;-79
2021/11/23 10:30:09;;;;;;;8.63;4.90;;;;;;;-145.69;100.00;73269.31;5152155;27;20196;-78
2021/11/23 10:32:43;;;;;;;8.17;4.87;;;;;;;-145.69;100.00;73279.28;5152044;27;20245;-79
2021/11/23 10:35:15;;;;;;;7.43;4.90;;;;;;;-145.69;100.00;73263.34;5152199;27;20184;-79
2021/11/23 10:37:45;;;;;;;8.37;4.57;;;;;;;-145.69;100.00;73265.34;5151516;27;20210;-79
2021/11/23 10:40:15;;;;;;;7.23;4.70;;;;;;;-145.69;100.00;73271.31;5151783;27;20223;-78
2021/11/23 10:42:42;;;;;;;8.43;5.23;;;;;;;-145.69;100.00;73255.38;5151682;27;20200;-79
2021/11/23 10:45:16;;;;;;;9.17;5.03;;;;;;;-145.69;99.93;73237.47;5151647;27;20200;-79
2021/11/23 10:47:47;;;;;;;7.67;4.40;;;;;;;-145.69;100.00;73229.50;5151885;27;20195;-78
2021/11/23 10:50:19;;;;;;;8.17;4.73;;;;;;;-145.69;100.00;73223.53;5151572;27;20667;-81
2021/11/23 10:52:51;;;;;;;8.40;5.30;;;;;;;-145.69;100.00;73229.50;5150328;27;20196;-80
2021/11/23 10:55:32;;;;;;;9.67;5.27;;;;;;;-145.69;100.00;73225.53;5150515;27;20188;-80
2021/11/23 10:58:03;;;;;;;9.57;5.00;;;;;;;-145.69;100.00;73225.53;5151017;27;20200;-80
2021/11/23 11:00:32;;;;;;;8.67;5.00;;;;;;;-145.69;100.00;73229.50;5151234;27;20200;-80
2021/11/23 11:03:01;;;;;;;9.57;5.33;;;;;;;-145.69;100.00;73233.50;5151448;27;20200;-80
2021/11/23 11:05:32;;;;;;;7.30;4.80;;;;;;;-145.69;100.00;73229.50;5150572;27;20284;-80
2021/11/23 11:08:03;;;;;;;9.47;5.53;;;;;;;-145.69;100.00;73237.47;5149219;27;20192;-80
2021/11/23 11:10:31;;;;;;;8.00;5.33;;;;;;;-145.69;100.00;73237.47;5149358;27;20185;-80